Time;durP1;ratioP1;P1;durP2;ratioP2;P2;SDS_P1;SDS_P2;PMS_P1;PMS_P2;Temp;Humidity;BMP_temperature;BMP_pressure;BME280_temperature;BME280_humidity;BME280_pressure;Samples;Min_cycle;Max_cycle;Signal;HPM_P1;HPM_P2
2021/03/09 04:15:16;;;;;;;2.28;2.03;;;-3.70;99.90;;;;;;5054226;28;20061;-68
2021/03/09 04:17:44;;;;;;;3.95;2.40;;;-3.70;99.90;;;;;;5055121;28;20031;-67
2021/03/09 04:20:11;;;;;;;2.35;2.03;;;-3.70;99.90;;;;;;5054730;28;20033;-67
2021/03/09 04:22:38;;;;;;;4.55;1.88;;;-3.70;99.90;;;;;;5055049;28;20021;-67
2021/03/09 04:25:04;;;;;;;4.20;2.10;;;-3.70;99.90;;;;;;5053626;28;20392;-68
2021/03/09 04:27:31;;;;;;;1.98;1.70;;;-3.60;99.90;;;;;;5054768;28;20096;-67
2021/03/09 04:29:58;;;;;;;1.77;1.67;;;-3.70;99.90;;;;;;5054880;28;20067;-67
2021/03/09 04:32:26;;;;;;;3.78;2.00;;;-3.70;99.90;;;;;;5054759;28;20065;-67
2021/03/09 04:34:54;;;;;;;3.25;1.90;;;-3.70;99.90;;;;;;5054988;28;20392;-67
2021/03/09 04:37:21;;;;;;;2.45;1.63;;;-3.80;99.90;;;;;;5054582;28;20029;-67
2021/03/09 04:39:47;;;;;;;3.20;1.65;;;-3.80;99.90;;;;;;5054716;28;20021;-67
2021/03/09 04:42:13;;;;;;;5.22;2.10;;;-3.80;99.90;;;;;;5054517;28;20028;-67
2021/03/09 04:44:39;;;;;;;5.25;2.55;;;-3.70;99.90;;;;;;5053952;28;20029;-67
2021/03/09 04:47:06;;;;;;;3.13;2.10;;;-3.70;99.90;;;;;;5054357;28;20064;-68
2021/03/09 04:49:34;;;;;;;2.38;1.85;;;-3.70;99.90;;;;;;5054489;28;20029;-68
2021/03/09 04:52:01;;;;;;;2.00;1.77;;;-3.70;99.90;;;;;;5053211;28;20112;-68
2021/03/09 04:54:27;;;;;;;5.53;2.20;;;-3.70;99.90;;;;;;5054559;28;20032;-68
2021/03/09 04:56:53;;;;;;;2.35;1.92;;;-3.80;99.90;;;;;;5054363;28;20056;-68
2021/03/09 04:59:20;;;;;;;3.15;2.00;;;-3.80;99.90;;;;;;5054083;28;20063;-68
2021/03/09 05:01:46;;;;;;;3.45;2.00;;;-3.80;99.90;;;;;;5054323;28;20100;-69
2021/03/09 05:04:12;;;;;;;3.03;2.15;;;-3.80;99.90;;;;;;5054203;28;20025;-73
2021/03/09 05:06:38;;;;;;;6.15;2.50;;;-3.90;99.90;;;;;;5053264;28;20056;-69
2021/03/09 05:09:04;;;;;;;2.85;1.50;;;-3.90;99.90;;;;;;5054100;28;20049;-68
2021/03/09 05:11:31;;;;;;;3.72;2.30;;;-3.60;99.90;;;;;;5053967;28;20170;-68
2021/03/09 05:13:57;;;;;;;5.22;2.22;;;-2.40;99.90;;;;;;5054310;28;20168;-68
2021/03/09 05:16:23;;;;;;;2.83;2.15;;;-1.50;99.90;;;;;;5053677;28;20102;-69
2021/03/09 05:18:49;;;;;;;3.80;2.00;;;-1.50;99.90;;;;;;5054241;28;20029;-69
2021/03/09 05:21:15;;;;;;;4.03;2.35;;;-2.00;99.90;;;;;;5053769;28;20383;-71
2021/03/09 05:23:41;;;;;;;3.28;2.10;;;-2.70;99.90;;;;;;5053909;28;20573;-69
2021/03/09 05:26:07;;;;;;;3.25;2.08;;;-3.10;99.90;;;;;;5054006;28;20029;-68
2021/03/09 05:28:32;;;;;;;5.07;1.90;;;-3.30;99.90;;;;;;5053550;28;20482;-68
2021/03/09 05:31:00;;;;;;;9.35;2.97;;;-3.40;99.90;;;;;;5053930;28;20480;-70
2021/03/09 05:33:25;;;;;;;4.82;2.83;;;-3.60;99.90;;;;;;5052195;28;20029;-70
2021/03/09 05:35:51;;;;;;;6.40;2.55;;;-3.80;99.90;;;;;;5053610;28;20021;-71
2021/03/09 05:38:17;;;;;;;5.47;2.38;;;-3.80;99.90;;;;;;5053471;28;20484;-73
2021/03/09 05:40:44;;;;;;;5.00;2.65;;;-3.90;99.90;;;;;;5053484;28;20029;-70
2021/03/09 05:43:11;;;;;;;3.30;2.30;;;-4.00;99.90;;;;;;5053563;28;20056;-68
2021/03/09 05:45:37;;;;;;;3.80;2.53;;;-4.00;99.90;;;;;;5052872;28;20029;-72
2021/03/09 05:48:04;;;;;;;4.10;2.72;;;-4.10;99.90;;;;;;5053386;28;20027;-72
2021/03/09 05:50:30;;;;;;;6.00;3.08;;;-4.30;99.90;;;;;;5053153;28;20473;-75
2021/03/09 05:52:56;;;;;;;3.10;2.05;;;-4.50;99.90;;;;;;5053166;28;20036;-68
2021/03/09 05:55:22;;;;;;;6.30;3.30;;;-4.50;99.90;;;;;;5052067;28;20455;-68
2021/03/09 05:57:48;;;;;;;5.28;2.95;;;-4.60;99.90;;;;;;5053102;28;20052;-69
2021/03/09 06:00:14;;;;;;;6.45;3.15;;;-4.70;99.90;;;;;;5053259;28;20025;-68
2021/03/09 06:02:40;;;;;;;7.28;2.50;;;-4.70;99.90;;;;;;5052988;28;20021;-68
2021/03/09 06:05:10;;;;;;;7.93;2.42;;;-4.70;99.90;;;;;;5052973;28;20025;-67
2021/03/09 06:07:36;;;;;;;5.97;2.63;;;-4.70;99.90;;;;;;5053042;28;20210;-67
2021/03/09 06:10:04;;;;;;;6.80;2.65;;;-4.70;99.90;;;;;;5052800;28;20100;-70
2021/03/09 06:12:30;;;;;;;4.32;2.78;;;-4.80;99.90;;;;;;5052379;28;20511;-70
2021/03/09 06:14:56;;;;;;;5.32;2.80;;;-4.80;99.90;;;;;;5052644;28;20393;-70
2021/03/09 06:17:30;;;;;;;5.28;2.90;;;-4.90;99.90;;;;;;5051233;28;20024;-70
2021/03/09 06:19:56;;;;;;;5.20;3.10;;;-5.00;99.90;;;;;;5052900;28;20025;-70
2021/03/09 06:22:39;;;;;;;9.65;3.63;;;-5.10;99.90;;;;;;5052852;28;20025;-70
2021/03/09 06:25:07;;;;;;;5.10;2.75;;;-5.00;99.90;;;;;;5052745;28;20032;-74
2021/03/09 06:27:33;;;;;;;3.83;2.95;;;-5.00;99.90;;;;;;5052331;28;20112;-75
2021/03/09 06:29:59;;;;;;;6.63;3.03;;;-5.00;99.90;;;;;;5052612;28;20025;-72
2021/03/09 06:32:26;;;;;;;6.25;3.28;;;-4.90;99.90;;;;;;5051963;28;20481;-71
2021/03/09 06:34:54;;;;;;;6.38;3.20;;;-4.80;99.90;;;;;;5052702;28;20392;-72
2021/03/09 06:37:23;;;;;;;5.10;2.90;;;-4.80;99.90;;;;;;5052178;28;20025;-75
2021/03/09 06:40:02;;;;;;;10.55;3.38;;;-4.80;99.90;;;;;;5052458;28;20017;-74
2021/03/09 06:42:31;;;;;;;6.00;3.22;;;-5.00;99.90;;;;;;5052239;28;20043;-70
2021/03/09 06:44:56;;;;;;;9.85;3.13;;;-5.10;99.90;;;;;;5052616;28;20555;-71
2021/03/09 06:47:39;;;;;;;12.43;3.22;;;-5.10;99.90;;;;;;5052160;28;20025;-70
2021/03/09 06:50:10;;;;;;;8.38;3.17;;;-3.40;99.90;;;;;;5052312;28;20048;-69
2021/03/09 06:52:37;;;;;;;6.05;3.35;;;-3.70;99.90;;;;;;5051953;28;20527;-69
2021/03/09 06:55:05;;;;;;;9.20;3.75;;;-4.20;99.90;;;;;;5052140;28;20021;-69
2021/03/09 06:57:31;;;;;;;6.90;3.45;;;-4.50;99.90;;;;;;5051865;28;20028;-70
2021/03/09 06:59:57;;;;;;;8.15;3.22;;;-4.80;99.90;;;;;;5052065;28;20025;-70
2021/03/09 07:02:29;;;;;;;7.93;3.10;;;-4.90;99.90;;;;;;5051960;28;20028;-70
2021/03/09 07:05:03;;;;;;;7.35;2.90;;;-5.00;99.90;;;;;;5051917;28;20025;-70
2021/03/09 07:07:39;;;;;;;6.78;2.90;;;-5.20;99.90;;;;;;5051467;28;20048;-70
2021/03/09 07:10:10;;;;;;;8.00;3.03;;;-5.20;99.90;;;;;;5052008;28;20529;-70
2021/03/09 07:12:39;;;;;;;9.88;3.72;;;-5.30;99.90;;;;;;5051612;28;20059;-70
2021/03/09 07:15:08;;;;;;;8.15;3.45;;;-5.30;99.90;;;;;;5051790;28;20056;-70
2021/03/09 07:17:35;;;;;;;5.72;3.50;;;-5.30;99.90;;;;;;5051622;28;20053;-70
2021/03/09 07:20:03;;;;;;;6.05;2.88;;;-5.40;99.90;;;;;;5051783;28;20455;-70
2021/03/09 07:22:30;;;;;;;6.47;3.03;;;-5.40;99.90;;;;;;5051624;28;20021;-74
2021/03/09 07:25:06;;;;;;;11.00;3.60;;;-5.00;99.90;;;;;;5049017;28;20094;-73
2021/03/09 07:27:46;;;;;;;7.88;3.08;;;-5.00;99.90;;;;;;5051539;28;20021;-73
2021/03/09 07:30:14;;;;;;;6.00;3.08;;;-5.20;99.90;;;;;;5051828;28;20025;-78
2021/03/09 07:32:43;;;;;;;7.68;3.38;;;-5.30;99.90;;;;;;5051318;28;20021;-73
2021/03/09 07:35:10;;;;;;;7.88;3.33;;;-5.40;99.90;;;;;;5051686;28;20063;-73
2021/03/09 07:37:38;;;;;;;7.43;3.55;;;-5.40;99.90;;;;;;5051569;28;20049;-73
2021/03/09 07:40:15;;;;;;;6.05;3.10;;;-5.30;99.90;;;;;;5052033;28;20056;-72
2021/03/09 07:42:41;;;;;;;8.52;3.25;;;-5.30;99.90;;;;;;5051716;28;20025;-72
2021/03/09 07:45:13;;;;;;;4.88;2.88;;;-5.40;99.90;;;;;;5051714;28;20036;-72
2021/03/09 07:47:54;;;;;;;9.23;3.72;;;-5.50;99.90;;;;;;5051527;28;20527;-73
2021/03/09 07:50:22;;;;;;;10.25;3.42;;;-5.60;99.90;;;;;;5051491;28;20100;-73
2021/03/09 07:53:03;;;;;;;6.07;2.72;;;-5.60;99.90;;;;;;5051839;28;20025;-73
2021/03/09 07:55:30;;;;;;;4.32;2.50;;;-5.60;99.90;;;;;;5051687;28;20060;-73
2021/03/09 07:58:18;;;;;;;8.45;3.63;;;-5.60;99.90;;;;;;5051870;28;20441;-73
2021/03/09 08:01:05;;;;;;;6.78;2.58;;;-5.60;99.90;;;;;;5051736;28;20013;-72
2021/03/09 08:03:38;;;;;;;6.82;3.25;;;-5.60;99.90;;;;;;5050377;28;20542;-72
2021/03/09 08:06:06;;;;;;;5.60;2.22;;;-5.60;99.90;;;;;;5049668;28;20032;-73
2021/03/09 08:08:50;;;;;;;3.72;2.28;;;-5.50;99.90;;;;;;5050762;28;20049;-73
2021/03/09 08:11:34;;;;;;;6.05;3.10;;;-5.60;99.90;;;;;;5050790;28;20045;-72
2021/03/09 08:14:03;;;;;;;5.80;3.13;;;-5.60;99.90;;;;;;5048742;28;20052;-72
2021/03/09 08:16:35;;;;;;;6.43;3.20;;;-5.60;99.90;;;;;;5050285;28;20043;-72
2021/03/09 08:19:05;;;;;;;5.15;3.10;;;-5.50;99.90;;;;;;5052163;28;20112;-70
2021/03/09 08:21:58;;;;;;;3.83;2.33;;;-5.40;99.90;;;;;;5054853;28;20389;-70
2021/03/09 08:24:42;;;;;;;4.55;2.55;;;-5.10;99.90;;;;;;5055110;28;20445;-72
2021/03/09 08:27:30;;;;;;;6.95;3.33;;;-5.10;99.90;;;;;;5054794;28;20044;-85
2021/03/09 08:30:17;;;;;;;6.53;2.80;;;-5.10;99.90;;;;;;5054519;28;20025;-72
2021/03/09 08:32:42;;;;;;;8.52;3.38;;;-5.10;99.90;;;;;;5054324;28;20029;-73
2021/03/09 08:35:11;;;;;;;4.70;2.78;;;-5.00;99.90;;;;;;5054070;28;20094;-73
2021/03/09 08:37:38;;;;;;;10.52;3.58;;;-4.00;99.90;;;;;;5054401;28;20027;-73
2021/03/09 08:40:05;;;;;;;8.95;3.33;;;-3.80;99.90;;;;;;5054227;28;20472;-73
2021/03/09 08:43:03;;;;;;;5.10;2.97;;;-4.00;97.40;;;;;;5045175;28;20064;-72
2021/03/09 08:45:42;;;;;;;5.57;2.35;;;-4.40;98.20;;;;;;5049642;28;20084;-70
2021/03/09 08:48:12;;;;;;;6.13;3.40;;;-4.60;99.00;;;;;;5054655;28;20032;-76
2021/03/09 08:50:40;;;;;;;8.25;3.03;;;-4.60;99.90;;;;;;5053253;28;20025;-81
2021/03/09 08:53:26;;;;;;;9.05;3.13;;;-4.50;99.90;;;;;;5053078;28;20588;-80
2021/03/09 08:55:57;;;;;;;8.35;3.33;;;-4.40;99.90;;;;;;5054385;28;20056;-77
2021/03/09 08:58:23;;;;;;;8.95;3.58;;;-4.40;99.90;;;;;;5054549;28;20358;-76
2021/03/09 09:00:49;;;;;;;7.10;2.92;;;-4.40;99.50;;;;;;5054404;28;20025;-75
2021/03/09 09:03:36;;;;;;;7.13;3.33;;;-4.30;99.10;;;;;;5053081;28;20042;-76
2021/03/09 09:06:02;;;;;;;3.22;2.53;;;-4.40;98.60;;;;;;5054020;28;20025;-77
2021/03/09 09:08:29;;;;;;;5.88;3.20;;;-4.40;98.50;;;;;;5054354;28;20032;-78
2021/03/09 09:10:56;;;;;;;10.10;3.83;;;-4.40;98.90;;;;;;5054047;28;20048;-80
2021/03/09 09:13:33;;;;;;;4.82;3.08;;;-4.40;98.80;;;;;;5054187;28;20115;-80
2021/03/09 09:16:00;;;;;;;7.45;3.53;;;-4.30;99.30;;;;;;5053753;28;20048;-78
2021/03/09 09:18:27;;;;;;;6.32;2.97;;;-4.30;97.90;;;;;;5054056;28;20095;-78
2021/03/09 09:20:53;;;;;;;3.42;2.53;;;-4.40;98.20;;;;;;5054186;28;20480;-80
2021/03/09 09:23:28;;;;;;;4.45;2.92;;;-4.30;98.90;;;;;;5054100;28;20025;-80
2021/03/09 09:25:56;;;;;;;5.40;3.20;;;-4.40;98.40;;;;;;5053927;28;20028;-80
2021/03/09 09:28:33;;;;;;;5.55;3.05;;;-4.40;98.80;;;;;;5052364;28;20029;-79
2021/03/09 09:31:11;;;;;;;6.00;3.03;;;-4.40;98.10;;;;;;5053904;28;20092;-83
2021/03/09 09:33:37;;;;;;;6.72;3.30;;;-4.20;99.90;;;;;;5038743;28;20147;-79
2021/03/09 09:36:04;;;;;;;10.80;3.60;;;-4.10;99.90;;;;;;5053299;28;20100;-79
2021/03/09 09:38:29;;;;;;;5.63;2.67;;;-4.20;98.20;;;;;;5053038;28;20024;-79
2021/03/09 09:40:59;;;;;;;6.32;3.28;;;-4.30;97.80;;;;;;5053055;28;20021;-77
2021/03/09 09:43:27;;;;;;;5.28;2.83;;;-4.30;98.20;;;;;;5052879;28;20013;-74
2021/03/09 09:46:04;;;;;;;10.07;3.80;;;-4.40;97.90;;;;;;5051634;28;20029;-79
2021/03/09 09:48:35;;;;;;;6.05;2.92;;;-4.50;98.30;;;;;;5050497;28;20028;-79
2021/03/09 09:51:03;;;;;;;7.65;3.30;;;-4.50;98.10;;;;;;5051713;28;20035;-78
2021/03/09 09:53:34;;;;;;;6.90;2.78;;;-4.60;98.70;;;;;;5052122;28;20036;-76
2021/03/09 09:56:05;;;;;;;4.15;2.85;;;-4.60;99.20;;;;;;5053113;28;20415;-79
2021/03/09 09:58:57;;;;;;;6.38;3.08;;;-4.50;98.00;;;;;;5052240;28;20045;-71
2021/03/09 10:01:32;;;;;;;6.43;3.72;;;-4.20;99.90;;;;;;5050463;28;20013;-70
2021/03/09 10:04:00;;;;;;;6.70;3.42;;;-3.80;99.90;;;;;;5052593;28;20032;-70
2021/03/09 10:06:36;;;;;;;7.40;3.67;;;-3.70;99.90;;;;;;5052374;28;20021;-70
2021/03/09 10:09:18;;;;;;;8.10;3.33;;;-3.50;99.90;;;;;;5048326;28;20116;-70
2021/03/09 10:12:04;;;;;;;7.38;3.20;;;-3.40;99.90;;;;;;5052914;28;20036;-77
2021/03/09 10:14:32;;;;;;;6.63;3.50;;;-3.60;94.10;;;;;;5053853;28;20065;-76
2021/03/09 10:16:58;;;;;;;8.73;3.22;;;-3.90;95.50;;;;;;5052683;28;20104;-78
2021/03/09 10:19:36;;;;;;;7.95;3.63;;;-4.00;96.10;;;;;;5051376;28;20025;-76
2021/03/09 10:22:03;;;;;;;4.93;2.97;;;-4.00;96.60;;;;;;5053001;28;20415;-76
2021/03/09 10:24:31;;;;;;;5.72;2.83;;;-4.10;95.70;;;;;;5052644;28;20017;-76
2021/03/09 10:26:59;;;;;;;5.88;2.75;;;-4.30;95.50;;;;;;5052518;28;20239;-76
2021/03/09 10:29:32;;;;;;;4.10;2.85;;;-4.20;96.30;;;;;;5052723;28;20033;-72
2021/03/09 10:32:03;;;;;;;6.95;3.00;;;-4.10;95.60;;;;;;5052625;28;20029;-75
2021/03/09 10:34:39;;;;;;;10.60;3.25;;;-4.20;95.70;;;;;;5051979;28;20097;-74
2021/03/09 10:37:26;;;;;;;8.00;4.40;;;-4.30;95.20;;;;;;5052376;28;20472;-74
2021/03/09 10:39:56;;;;;;;7.05;3.10;;;-4.30;94.80;;;;;;5051750;28;20457;-74
2021/03/09 10:42:50;;;;;;;9.45;3.42;;;-4.40;95.30;;;;;;5051991;28;20432;-74
2021/03/09 10:45:16;;;;;;;5.88;2.83;;;-4.40;94.50;;;;;;5052284;28;20491;-74
2021/03/09 10:47:56;;;;;;;5.72;3.10;;;-4.50;95.00;;;;;;5051983;28;20021;-74
2021/03/09 10:50:24;;;;;;;7.95;3.17;;;-4.50;95.70;;;;;;5052040;28;20106;-75
2021/03/09 10:52:51;;;;;;;9.40;3.63;;;-4.50;95.80;;;;;;5051872;28;20027;-75
2021/03/09 10:55:17;;;;;;;6.65;3.72;;;-4.50;95.80;;;;;;5052121;28;20052;-76
2021/03/09 10:57:43;;;;;;;8.63;3.33;;;-4.50;95.40;;;;;;5051841;28;20021;-76
2021/03/09 11:00:14;;;;;;;5.65;3.28;;;-4.60;94.50;;;;;;5052050;28;20029;-76
2021/03/09 11:02:41;;;;;;;4.13;3.22;;;-4.80;95.00;;;;;;5051885;28;20094;-75
2021/03/09 11:05:08;;;;;;;8.02;4.03;;;-4.90;95.70;;;;;;5051075;28;20412;-76
2021/03/09 11:07:34;;;;;;;8.88;3.60;;;-4.90;96.20;;;;;;5051731;28;20377;-76
2021/03/09 11:10:00;;;;;;;6.47;3.47;;;-4.90;96.50;;;;;;5052105;28;20047;-76
2021/03/09 11:12:26;;;;;;;7.57;3.22;;;-4.90;96.60;;;;;;5051946;28;20025;-76
2021/03/09 11:14:51;;;;;;;5.28;3.28;;;-4.80;96.90;;;;;;5051562;28;20055;-75
2021/03/09 11:17:17;;;;;;;6.95;3.80;;;-4.70;96.80;;;;;;5051804;28;20068;-78
2021/03/09 11:19:43;;;;;;;5.13;3.47;;;-4.70;95.90;;;;;;5049039;28;20112;-75
2021/03/09 11:22:09;;;;;;;6.78;3.25;;;-4.70;95.10;;;;;;5051328;28;20380;-77
2021/03/09 11:24:35;;;;;;;6.53;2.88;;;-4.80;94.80;;;;;;5051271;28;20556;-76
2021/03/09 11:27:02;;;;;;;7.32;3.20;;;-4.90;94.90;;;;;;5051434;28;20434;-76
2021/03/09 11:29:29;;;;;;;7.57;3.65;;;-4.90;94.90;;;;;;5051606;28;20025;-76
2021/03/09 11:31:55;;;;;;;6.28;3.30;;;-4.90;95.70;;;;;;5050299;28;20083;-77
2021/03/09 11:34:21;;;;;;;6.32;3.10;;;-4.90;95.50;;;;;;5050969;28;20052;-77
2021/03/09 11:36:47;;;;;;;7.50;3.35;;;-4.80;95.10;;;;;;5051207;28;20108;-78
2021/03/09 11:39:13;;;;;;;7.70;3.80;;;-4.70;95.00;;;;;;5051582;28;20100;-77
2021/03/09 11:41:39;;;;;;;7.78;2.85;;;-4.80;95.70;;;;;;5051101;28;20014;-79
2021/03/09 11:44:05;;;;;;;7.03;3.72;;;-4.70;94.70;;;;;;5051345;28;20055;-77
2021/03/09 11:46:31;;;;;;;9.60;3.85;;;-4.70;95.10;;;;;;5050906;28;20025;-78
2021/03/09 11:48:57;;;;;;;6.63;3.83;;;-4.70;94.80;;;;;;5050063;28;20036;-78
2021/03/09 11:51:23;;;;;;;9.88;3.80;;;-4.70;95.00;;;;;;5048899;28;20538;-72
2021/03/09 11:53:48;;;;;;;8.60;3.47;;;-4.70;95.20;;;;;;5051653;28;20080;-76
2021/03/09 11:56:14;;;;;;;6.40;3.92;;;-4.50;99.90;;;;;;5055050;28;20021;-76
2021/03/09 11:58:40;;;;;;;8.48;4.40;;;-4.40;95.90;;;;;;5055446;28;20021;-70
2021/03/09 12:01:06;;;;;;;9.93;3.90;;;-4.40;94.00;;;;;;5055749;28;20028;-75
2021/03/09 12:03:31;;;;;;;5.97;3.70;;;-4.40;93.70;;;;;;5055745;28;20055;-75
2021/03/09 12:05:57;;;;;;;11.50;4.00;;;-4.50;94.30;;;;;;5054706;28;20535;-75
2021/03/09 12:08:23;;;;;;;6.00;3.90;;;-4.70;94.80;;;;;;5055103;28;20070;-83
2021/03/09 12:10:49;;;;;;;7.25;4.10;;;-4.90;95.20;;;;;;5050724;28;20380;-71
2021/03/09 12:13:14;;;;;;;7.60;4.50;;;-5.00;96.10;;;;;;5052717;28;20069;-73
2021/03/09 12:15:43;;;;;;;7.90;4.13;;;-5.10;96.50;;;;;;5054157;28;20071;-71
2021/03/09 12:18:09;;;;;;;7.15;4.10;;;-5.20;97.10;;;;;;5054901;28;20036;-72
2021/03/09 12:20:35;;;;;;;7.50;3.70;;;-5.20;97.20;;;;;;5054814;28;20017;-73
2021/03/09 12:23:04;;;;;;;9.60;4.28;;;-5.30;97.50;;;;;;5056097;28;20486;-71
2021/03/09 12:25:30;;;;;;;10.65;4.75;;;-5.40;97.70;;;;;;5055300;28;20029;-71
2021/03/09 12:27:56;;;;;;;7.07;3.50;;;-5.50;98.40;;;;;;5055064;28;20048;-74
2021/03/09 12:30:22;;;;;;;7.22;4.05;;;-5.50;99.90;;;;;;5054019;28;20087;-71
2021/03/09 12:32:51;;;;;;;9.07;4.75;;;-5.10;99.90;;;;;;5054836;28;20033;-74
2021/03/09 12:35:18;;;;;;;7.40;4.18;;;-5.10;99.50;;;;;;5054796;28;20120;-70
2021/03/09 12:37:44;;;;;;;7.50;4.30;;;-5.10;98.90;;;;;;5054840;28;20049;-70
2021/03/09 12:40:10;;;;;;;8.20;4.13;;;-5.10;98.40;;;;;;5055115;28;20075;-70
2021/03/09 12:42:36;;;;;;;6.18;4.00;;;-5.10;97.70;;;;;;5047952;28;20021;-69
2021/03/09 12:45:04;;;;;;;8.13;4.43;;;-5.10;97.50;;;;;;5043429;28;20112;-70
2021/03/09 12:47:29;;;;;;;9.55;4.82;;;-5.10;97.40;;;;;;5048144;28;20032;-69
2021/03/09 12:49:55;;;;;;;8.20;4.47;;;-5.20;97.70;;;;;;5053890;28;20377;-69
2021/03/09 12:52:21;;;;;;;6.50;4.18;;;-5.10;99.80;;;;;;5054289;28;20029;-71
2021/03/09 12:54:47;;;;;;;7.55;4.45;;;-5.00;99.90;;;;;;5053774;28;20041;-69
2021/03/09 12:57:15;;;;;;;7.28;4.45;;;-5.00;98.30;;;;;;5054278;28;20678;-68
2021/03/09 12:59:41;;;;;;;5.55;2.20;;;-5.10;97.60;;;;;;5045463;28;20029;-65
2021/03/09 13:02:07;;;;;;;9.50;4.18;;;-4.40;99.90;;;;;;5034545;28;20026;-66
2021/03/09 13:04:33;;;;;;;11.82;4.35;;;0.00;99.90;;;;;;5034006;28;20052;-70
2021/03/09 13:06:59;;;;;;;7.65;4.20;;;0.30;99.90;;;;;;5034438;28;20453;-69
2021/03/09 13:09:25;;;;;;;8.27;3.80;;;-1.10;86.20;;;;;;5034325;28;20029;-67
2021/03/09 13:11:51;;;;;;;6.22;4.35;;;-1.50;99.90;;;;;;5034031;28;20123;-65
2021/03/09 13:14:17;;;;;;;11.02;4.40;;;-2.20;92.10;;;;;;5033982;28;20116;-66
2021/03/09 13:16:43;;;;;;;9.35;4.43;;;-2.90;91.50;;;;;;5042091;28;20025;-65
2021/03/09 13:19:09;;;;;;;6.68;4.15;;;-3.40;92.50;;;;;;5054445;28;20035;-66
2021/03/09 13:21:34;;;;;;;6.57;4.40;;;-3.50;93.30;;;;;;5055122;28;20136;-65
2021/03/09 13:24:00;;;;;;;7.32;4.10;;;-3.70;93.40;;;;;;5054602;28;20387;-65
2021/03/09 13:26:26;;;;;;;8.60;4.60;;;-3.80;93.40;;;;;;5054684;28;20036;-65
2021/03/09 13:28:53;;;;;;;7.60;4.13;;;-4.00;93.80;;;;;;5054712;28;20025;-65
2021/03/09 13:31:19;;;;;;;9.40;4.88;;;-4.00;94.60;;;;;;5054707;28;20108;-65
2021/03/09 13:33:45;;;;;;;7.03;4.10;;;-4.10;93.80;;;;;;5054499;28;20071;-65
2021/03/09 13:36:11;;;;;;;9.82;4.50;;;-3.80;99.90;;;;;;5053789;28;20021;-64
2021/03/09 13:38:37;;;;;;;8.55;4.22;;;-3.50;97.50;;;;;;5052917;28;20061;-66
2021/03/09 13:41:05;;;;;;;7.82;4.80;;;-3.70;93.60;;;;;;5054286;28;20028;-66
2021/03/09 13:43:32;;;;;;;7.65;4.53;;;-4.00;93.40;;;;;;5053030;28;20530;-66
2021/03/09 13:45:58;;;;;;;9.02;4.03;;;-4.20;93.70;;;;;;5052820;28;20036;-66
2021/03/09 13:48:24;;;;;;;6.13;3.42;;;-4.30;94.00;;;;;;5052812;28;20028;-66
2021/03/09 13:50:49;;;;;;;7.55;4.30;;;-4.40;93.70;;;;;;5053007;28;20032;-66
2021/03/09 13:53:15;;;;;;;6.63;4.13;;;-4.40;94.00;;;;;;5050312;28;20021;-66
2021/03/09 13:55:41;;;;;;;7.00;4.32;;;-4.40;94.50;;;;;;5052636;28;20472;-67
2021/03/09 13:58:07;;;;;;;8.55;4.22;;;-4.30;94.10;;;;;;5052658;28;20024;-71
2021/03/09 14:00:32;;;;;;;7.38;4.35;;;-4.30;94.10;;;;;;5050023;28;20025;-66
2021/03/09 14:02:59;;;;;;;11.35;4.50;;;-4.40;92.90;;;;;;5051087;28;20171;-66
2021/03/09 14:05:25;;;;;;;8.15;4.22;;;-4.40;93.50;;;;;;5052379;28;20033;-67
2021/03/09 14:07:51;;;;;;;13.68;5.18;;;-4.50;92.90;;;;;;5052667;28;20104;-66
2021/03/09 14:10:18;;;;;;;8.05;4.20;;;-4.70;93.00;;;;;;5052807;28;20024;-66
2021/03/09 14:12:44;;;;;;;9.90;4.13;;;-4.70;93.70;;;;;;5052882;28;20379;-66
2021/03/09 14:15:11;;;;;;;9.50;4.68;;;-4.80;93.90;;;;;;5052190;28;20048;-67
2021/03/09 14:17:38;;;;;;;8.85;5.00;;;-4.80;94.00;;;;;;5041366;28;20056;-67
2021/03/09 14:20:06;;;;;;;6.45;4.15;;;-4.90;94.40;;;;;;5052507;28;20029;-67
2021/03/09 14:22:32;;;;;;;9.25;4.78;;;-4.90;94.40;;;;;;5052316;28;20110;-66
2021/03/09 14:24:58;;;;;;;12.57;4.82;;;-4.90;94.90;;;;;;5052499;28;20108;-65
2021/03/09 14:27:24;;;;;;;9.77;4.97;;;-4.90;95.50;;;;;;5052203;28;20116;-66
2021/03/09 14:29:53;;;;;;;8.30;4.05;;;-4.90;95.40;;;;;;5052615;28;20107;-65
2021/03/09 14:32:25;;;;;;;7.40;4.70;;;-5.00;95.10;;;;;;5048987;28;20502;-66
2021/03/09 14:34:50;;;;;;;8.70;4.20;;;-5.00;95.60;;;;;;5052632;28;20120;-66
2021/03/09 14:37:17;;;;;;;8.35;4.68;;;-5.00;95.20;;;;;;5052505;28;20503;-66
2021/03/09 14:39:42;;;;;;;11.13;5.63;;;-4.90;95.00;;;;;;5052829;28;20484;-66
2021/03/09 14:42:09;;;;;;;9.60;5.20;;;-4.90;95.40;;;;;;5052346;28;20025;-66
2021/03/09 14:44:35;;;;;;;9.48;5.20;;;-4.90;94.80;;;;;;5051926;28;20028;-67
2021/03/09 14:47:01;;;;;;;7.35;4.45;;;-4.90;94.90;;;;;;5051997;28;20025;-66
2021/03/09 14:49:26;;;;;;;7.55;5.13;;;-5.00;94.80;;;;;;5051809;28;20460;-66
2021/03/09 14:51:52;;;;;;;9.50;5.40;;;-5.00;95.10;;;;;;5051724;28;20056;-66
2021/03/09 14:54:18;;;;;;;9.75;4.90;;;-5.00;95.40;;;;;;5051566;28;20464;-67
2021/03/09 14:56:44;;;;;;;6.80;4.85;;;-4.90;94.80;;;;;;5051918;28;20032;-67
2021/03/09 14:59:10;;;;;;;7.57;4.47;;;-4.80;94.70;;;;;;5051846;28;20487;-70
2021/03/09 15:01:36;;;;;;;8.43;4.88;;;-4.70;94.40;;;;;;5051553;28;20461;-69
2021/03/09 15:04:02;;;;;;;7.63;4.78;;;-4.70;93.80;;;;;;5051399;28;20021;-68
2021/03/09 15:06:28;;;;;;;11.10;5.47;;;-4.90;94.20;;;;;;5051592;28;20017;-69
2021/03/09 15:08:54;;;;;;;6.97;4.55;;;-5.00;94.60;;;;;;5057162;28;20111;-69
2021/03/09 15:11:20;;;;;;;7.25;4.32;;;-5.10;94.90;;;;;;5052210;28;20021;-69
2021/03/09 15:13:46;;;;;;;9.07;5.28;;;-5.10;95.30;;;;;;5051310;28;20043;-69
2021/03/09 15:16:12;;;;;;;11.30;5.30;;;-5.10;95.50;;;;;;5051376;28;20175;-69
2021/03/09 15:18:38;;;;;;;12.23;5.80;;;-5.00;95.20;;;;;;5048972;28;20025;-68
2021/03/09 15:21:04;;;;;;;8.43;4.70;;;-5.00;95.00;;;;;;5051711;28;20068;-69
2021/03/09 15:23:30;;;;;;;12.38;5.55;;;-4.90;94.50;;;;;;5051680;28;20024;-69
2021/03/09 15:25:56;;;;;;;11.13;4.40;;;-4.90;94.20;;;;;;5051469;28;20025;-69
2021/03/09 15:28:22;;;;;;;8.30;5.03;;;-4.90;94.20;;;;;;5053000;28;20032;-69
2021/03/09 15:30:47;;;;;;;13.15;5.07;;;-4.90;94.20;;;;;;5055412;28;20063;-68
2021/03/09 15:33:13;;;;;;;8.57;4.75;;;-4.90;94.10;;;;;;5055248;28;20029;-69
2021/03/09 15:35:39;;;;;;;8.27;4.90;;;-4.90;93.90;;;;;;5055670;28;20064;-69
2021/03/09 15:38:04;;;;;;;8.80;4.85;;;-4.90;94.00;;;;;;5055628;28;20368;-68
2021/03/09 15:40:30;;;;;;;8.43;5.25;;;-4.90;94.00;;;;;;5055655;28;20679;-68
2021/03/09 15:42:57;;;;;;;12.20;5.15;;;-5.00;94.00;;;;;;5055398;28;20017;-66
2021/03/09 15:45:23;;;;;;;14.13;5.00;;;-4.90;94.20;;;;;;5055542;28;20021;-66
2021/03/09 15:47:48;;;;;;;8.85;4.60;;;-4.80;99.90;;;;;;5055068;28;20025;-66
2021/03/09 15:50:15;;;;;;;10.10;5.10;;;-3.80;99.90;;;;;;5054690;28;20044;-66
2021/03/09 15:52:42;;;;;;;12.80;4.88;;;-3.80;99.90;;;;;;5055002;28;20024;-66
2021/03/09 15:55:10;;;;;;;7.72;4.60;;;-4.00;95.00;;;;;;5055118;28;20502;-66
2021/03/09 15:57:36;;;;;;;10.07;5.43;;;-4.20;93.10;;;;;;5055134;28;20056;-68
2021/03/09 16:00:02;;;;;;;9.98;4.88;;;-4.40;91.80;;;;;;5055461;28;20021;-68
2021/03/09 16:02:28;;;;;;;10.77;5.40;;;-4.70;92.00;;;;;;5055462;28;20048;-68
2021/03/09 16:04:53;;;;;;;7.60;4.82;;;-4.90;92.80;;;;;;5055034;28;20476;-68
2021/03/09 16:07:20;;;;;;;12.57;6.28;;;-5.10;92.70;;;;;;5055181;28;20029;-68
2021/03/09 16:09:45;;;;;;;10.00;5.75;;;-5.20;93.30;;;;;;5055474;28;20063;-69
2021/03/09 16:12:11;;;;;;;13.55;5.53;;;-5.20;94.00;;;;;;5055565;28;20049;-69
2021/03/09 16:14:37;;;;;;;9.20;5.75;;;-4.50;99.90;;;;;;5054987;28;20407;-68
2021/03/09 16:17:03;;;;;;;9.00;5.57;;;-4.20;97.70;;;;;;5055413;28;20017;-66
2021/03/09 16:19:29;;;;;;;10.18;5.05;;;-4.40;92.30;;;;;;5055272;28;20450;-66
2021/03/09 16:21:55;;;;;;;9.18;5.28;;;-4.90;90.50;;;;;;5055242;28;20052;-66
2021/03/09 16:24:21;;;;;;;11.45;5.75;;;-5.20;91.10;;;;;;5054918;28;20120;-65
2021/03/09 16:26:47;;;;;;;8.63;4.97;;;-5.30;91.50;;;;;;5055135;28;20070;-65
2021/03/09 16:29:12;;;;;;;13.60;4.60;;;-5.30;91.60;;;;;;5055201;28;20021;-65
2021/03/09 16:31:38;;;;;;;10.68;5.20;;;-5.40;91.50;;;;;;5057088;28;20092;-66
2021/03/09 16:34:04;;;;;;;10.50;5.05;;;-5.30;90.60;;;;;;5054790;28;20054;-66
2021/03/09 16:36:30;;;;;;;8.23;5.05;;;-5.40;88.50;;;;;;5054755;28;20021;-66
2021/03/09 16:38:55;;;;;;;9.48;4.63;;;-5.60;86.60;;;;;;5054718;28;20028;-66
2021/03/09 16:41:21;;;;;;;11.00;4.32;;;-5.90;87.60;;;;;;5053949;28;20025;-68
2021/03/09 16:43:47;;;;;;;7.72;4.55;;;-5.50;99.90;;;;;;5054094;28;20025;-68
2021/03/09 16:46:12;;;;;;;9.02;4.80;;;-5.40;93.20;;;;;;5054480;28;20066;-67
2021/03/09 16:48:41;;;;;;;10.10;5.03;;;-5.60;89.40;;;;;;5056696;28;20036;-67
2021/03/09 16:51:07;;;;;;;9.15;4.63;;;-5.70;87.80;;;;;;5057379;28;20019;-65
2021/03/09 16:53:32;;;;;;;10.45;4.55;;;-5.70;86.60;;;;;;5054817;28;20033;-66
2021/03/09 16:55:58;;;;;;;10.00;5.10;;;-5.80;85.80;;;;;;5054680;28;20025;-66
2021/03/09 16:58:24;;;;;;;10.73;5.03;;;-5.90;85.70;;;;;;5054348;28;20468;-65
2021/03/09 17:00:50;;;;;;;6.90;4.68;;;-5.90;84.90;;;;;;5054391;28;20029;-65
2021/03/09 17:03:16;;;;;;;17.60;5.65;;;-6.00;84.00;;;;;;5054343;28;20021;-66
2021/03/09 17:05:42;;;;;;;17.95;6.57;;;-6.20;83.90;;;;;;5054300;28;20032;-66